sensor_id;sensor_type;location;lat;lon;timestamp;pressure;altitude;pressure_sealevel;temperature;humidity
51099;BME280;37146;48.210;16.234;2023-03-03T00:01:52;98975.19;;;-1.17;99.99
51099;BME280;37146;48.210;16.234;2023-03-03T00:04:18;98977.00;;;-1.30;99.82
51099;BME280;37146;48.210;16.234;2023-03-03T00:06:43;98977.00;;;-1.36;99.77
51099;BME280;37146;48.210;16.234;2023-03-03T00:09:09;98976.97;;;-1.28;100.00
51099;BME280;37146;48.210;16.234;2023-03-03T00:11:34;98975.28;;;-1.43;99.08
51099;BME280;37146;48.210;16.234;2023-03-03T00:13:59;98974.41;;;-1.34;99.88
51099;BME280;37146;48.210;16.234;2023-03-03T00:16:31;98976.16;;;-1.36;99.33
51099;BME280;37146;48.210;16.234;2023-03-03T00:18:59;98972.59;;;-1.26;99.85
51099;BME280;37146;48.210;16.234;2023-03-03T00:21:29;98973.44;;;-1.21;99.71
51099;BME280;37146;48.210;16.234;2023-03-03T00:26:37;98971.75;;;-1.33;100.00
51099;BME280;37146;48.210;16.234;2023-03-03T00:29:17;98967.47;;;-1.49;99.64
51099;BME280;37146;48.210;16.234;2023-03-03T00:31:47;98962.19;;;-1.51;100.00
51099;BME280;37146;48.210;16.234;2023-03-03T00:36:41;98962.19;;;-1.54;100.00
51099;BME280;37146;48.210;16.234;2023-03-03T00:41:36;98963.09;;;-1.55;100.00
51099;BME280;37146;48.210;16.234;2023-03-03T00:44:16;98956.00;;;-1.36;100.00
51099;BME280;37146;48.210;16.234;2023-03-03T00:46:49;98959.56;;;-1.46;99.67
51099;BME280;37146;48.210;16.234;2023-03-03T00:49:23;98949.94;;;-1.47;100.00
51099;BME280;37146;48.210;16.234;2023-03-03T00:51:50;98950.00;;;-1.58;99.85
51099;BME280;37146;48.210;16.234;2023-03-03T00:54:16;98950.06;;;-1.72;100.00
51099;BME280;37146;48.210;16.234;2023-03-03T00:56:41;98950.94;;;-1.81;100.00
51099;BME280;37146;48.210;16.234;2023-03-03T00:59:06;98947.44;;;-1.72;100.00
51099;BME280;37146;48.210;16.234;2023-03-03T01:01:31;98948.22;;;-1.51;100.00
51099;BME280;37146;48.210;16.234;2023-03-03T01:03:57;98948.22;;;-1.51;100.00
51099;BME280;37146;48.210;16.234;2023-03-03T01:06:22;98946.47;;;-1.54;100.00
51099;BME280;37146;48.210;16.234;2023-03-03T01:08:47;98946.50;;;-1.60;99.91
51099;BME280;37146;48.210;16.234;2023-03-03T01:11:16;98941.31;;;-1.79;100.00
51099;BME280;37146;48.210;16.234;2023-03-03T01:13:44;98932.59;;;-1.84;100.00
51099;BME280;37146;48.210;16.234;2023-03-03T01:16:10;98936.09;;;-1.90;100.00
51099;BME280;37146;48.210;16.234;2023-03-03T01:18:35;98938.66;;;-1.65;100.00
51099;BME280;37146;48.210;16.234;2023-03-03T01:21:01;98929.91;;;-1.61;100.00
51099;BME280;37146;48.210;16.234;2023-03-03T01:23:27;98934.28;;;-1.67;100.00
51099;BME280;37146;48.210;16.234;2023-03-03T01:25:52;98932.56;;;-1.73;100.00
51099;BME280;37146;48.210;16.234;2023-03-03T01:28:17;98923.78;;;-1.61;100.00
51099;BME280;37146;48.210;16.234;2023-03-03T01:30:42;98922.03;;;-1.67;100.00
51099;BME280;37146;48.210;16.234;2023-03-03T01:33:08;98929.13;;;-1.94;100.00
51099;BME280;37146;48.210;16.234;2023-03-03T01:35:33;98930.00;;;-1.93;100.00
51099;BME280;37146;48.210;16.234;2023-03-03T01:38:00;98926.50;;;-1.95;100.00
51099;BME280;37146;48.210;16.234;2023-03-03T01:40:26;98923.00;;;-1.90;100.00
51099;BME280;37146;48.210;16.234;2023-03-03T01:42:52;98916.03;;;-2.00;100.00
51099;BME280;37146;48.210;16.234;2023-03-03T01:45:19;98925.66;;;-2.00;100.00
51099;BME280;37146;48.210;16.234;2023-03-03T01:48:05;98916.91;;;-2.03;100.00
51099;BME280;37146;48.210;16.234;2023-03-03T01:51:04;98926.50;;;-2.00;100.00
51099;BME280;37146;48.210;16.234;2023-03-03T01:53:22;98916.91;;;-1.98;100.00
51099;BME280;37146;48.210;16.234;2023-03-03T01:55:51;98919.50;;;-1.96;100.00
51099;BME280;37146;48.210;16.234;2023-03-03T01:58:20;98922.13;;;-1.96;100.00
51099;BME280;37146;48.210;16.234;2023-03-03T02:00:47;98920.41;;;-1.96;100.00
51099;BME280;37146;48.210;16.234;2023-03-03T02:03:14;98923.88;;;-1.91;100.00
51099;BME280;37146;48.210;16.234;2023-03-03T02:05:40;98919.53;;;-2.06;100.00
51099;BME280;37146;48.210;16.234;2023-03-03T02:08:05;98919.56;;;-2.20;100.00
51099;BME280;37146;48.210;16.234;2023-03-03T02:10:31;98915.13;;;-1.97;100.00
51099;BME280;37146;48.210;16.234;2023-03-03T02:12:57;98911.63;;;-1.78;100.00
51099;BME280;37146;48.210;16.234;2023-03-03T02:15:25;98921.28;;;-2.05;100.00
51099;BME280;37146;48.210;16.234;2023-03-03T02:17:54;98919.41;;;-1.64;100.00
51099;BME280;37146;48.210;16.234;2023-03-03T02:28:09;98910.75;;;-1.83;100.00
51099;BME280;37146;48.210;16.234;2023-03-03T02:30:38;98905.53;;;-1.95;100.00
51099;BME280;37146;48.210;16.234;2023-03-03T02:33:03;98906.44;;;-2.06;100.00
51099;BME280;37146;48.210;16.234;2023-03-03T02:35:31;98909.00;;;-1.89;100.00
51099;BME280;37146;48.210;16.234;2023-03-03T02:38:01;98900.31;;;-2.03;100.00
51099;BME280;37146;48.210;16.234;2023-03-03T02:40:29;98907.28;;;-1.99;100.00
51099;BME280;37146;48.210;16.234;2023-03-03T02:42:55;98895.94;;;-2.03;100.00
51099;BME280;37146;48.210;16.234;2023-03-03T02:45:22;98898.59;;;-2.18;100.00
51099;BME280;37146;48.210;16.234;2023-03-03T02:47:48;98894.22;;;-2.14;100.00
51099;BME280;37146;48.210;16.234;2023-03-03T02:50:13;98894.19;;;-2.00;100.00
51099;BME280;37146;48.210;16.234;2023-03-03T02:52:39;98897.69;;;-2.08;100.00
51099;BME280;37146;48.210;16.234;2023-03-03T02:55:04;98895.97;;;-2.04;100.00
51099;BME280;37146;48.210;16.234;2023-03-03T02:57:30;98894.13;;;-1.82;100.00
51099;BME280;37146;48.210;16.234;2023-03-03T02:59:55;98895.03;;;-1.89;100.00
51099;BME280;37146;48.210;16.234;2023-03-03T03:02:20;98896.81;;;-1.99;100.00
51099;BME280;37146;48.210;16.234;2023-03-03T03:04:45;98894.19;;;-2.04;100.00
51099;BME280;37146;48.210;16.234;2023-03-03T03:07:11;98891.59;;;-2.07;100.00
51099;BME280;37146;48.210;16.234;2023-03-03T03:09:36;98894.19;;;-2.04;100.00
51099;BME280;37146;48.210;16.234;2023-03-03T03:12:01;98893.28;;;-1.89;100.00
51099;BME280;37146;48.210;16.234;2023-03-03T03:14:26;98895.94;;;-1.98;100.00
51099;BME280;37146;48.210;16.234;2023-03-03T03:16:52;98900.28;;;-1.84;100.00
51099;BME280;37146;48.210;16.234;2023-03-03T03:19:17;98901.16;;;-1.93;100.00
51099;BME280;37146;48.210;16.234;2023-03-03T03:21:42;98888.84;;;-1.76;100.00
51099;BME280;37146;48.210;16.234;2023-03-03T03:24:08;98892.34;;;-1.74;100.00
51099;BME280;37146;48.210;16.234;2023-03-03T03:26:33;98882.72;;;-1.64;100.00
51099;BME280;37146;48.210;16.234;2023-03-03T03:28:58;98883.50;;;-1.48;100.00
51099;BME280;37146;48.210;16.234;2023-03-03T03:31:23;98882.72;;;-1.64;100.00
51099;BME280;37146;48.210;16.234;2023-03-03T03:33:49;98879.16;;;-1.57;100.00
51099;BME280;37146;48.210;16.234;2023-03-03T03:36:14;98883.56;;;-1.57;100.00
51099;BME280;37146;48.210;16.234;2023-03-03T03:38:39;98875.75;;;-1.74;100.00
51099;BME280;37146;48.210;16.234;2023-03-03T03:41:05;98879.22;;;-1.69;100.00
51099;BME280;37146;48.210;16.234;2023-03-03T03:43:30;98872.31;;;-1.93;100.00
51099;BME280;37146;48.210;16.234;2023-03-03T03:45:56;98872.38;;;-2.09;100.00
51099;BME280;37146;48.210;16.234;2023-03-03T03:48:21;98875.91;;;-2.18;100.00
51099;BME280;37146;48.210;16.234;2023-03-03T03:50:46;98872.41;;;-2.18;100.00
51099;BME280;37146;48.210;16.234;2023-03-03T03:53:12;98875.03;;;-2.21;100.00
51099;BME280;37146;48.210;16.234;2023-03-03T03:55:37;98871.53;;;-2.22;100.00
51099;BME280;37146;48.210;16.234;2023-03-03T03:58:02;98873.22;;;-2.07;100.00
51099;BME280;37146;48.210;16.234;2023-03-03T04:00:27;98881.06;;;-1.93;100.00
51099;BME280;37146;48.210;16.234;2023-03-03T04:02:53;98877.59;;;-2.06;100.00
51099;BME280;37146;48.210;16.234;2023-03-03T04:05:18;98881.94;;;-1.92;100.00
51099;BME280;37146;48.210;16.234;2023-03-03T04:07:43;98888.94;;;-1.94;100.00
51099;BME280;37146;48.210;16.234;2023-03-03T04:10:09;98887.28;;;-2.23;100.00
51099;BME280;37146;48.210;16.234;2023-03-03T04:12:35;98884.63;;;-2.19;100.00
51099;BME280;37146;48.210;16.234;2023-03-03T04:15:11;98887.25;;;-2.26;100.00
51099;BME280;37146;48.210;16.234;2023-03-03T04:17:37;98897.75;;;-2.23;100.00
51099;BME280;37146;48.210;16.234;2023-03-03T04:20:03;98908.22;;;-2.29;100.00
51099;BME280;37146;48.210;16.234;2023-03-03T04:22:29;98904.75;;;-2.50;100.00
51099;BME280;37146;48.210;16.234;2023-03-03T04:24:58;98912.59;;;-2.30;100.00
51099;BME280;37146;48.210;16.234;2023-03-03T04:27:23;98911.69;;;-2.18;100.00
51099;BME280;37146;48.210;16.234;2023-03-03T04:29:48;98915.22;;;-2.33;100.00
51099;BME280;37146;48.210;16.234;2023-03-03T04:32:13;98910.00;;;-2.50;100.00
51099;BME280;37146;48.210;16.234;2023-03-03T04:34:39;98905.66;;;-2.54;100.00
51099;BME280;37146;48.210;16.234;2023-03-03T04:37:04;98917.00;;;-2.43;100.00
51099;BME280;37146;48.210;16.234;2023-03-03T04:39:29;98909.13;;;-2.44;100.00
51099;BME280;37146;48.210;16.234;2023-03-03T04:41:54;98908.22;;;-2.34;100.00
51099;BME280;37146;48.210;16.234;2023-03-03T04:44:19;98915.22;;;-2.35;100.00
51099;BME280;37146;48.210;16.234;2023-03-03T04:46:45;98911.72;;;-2.35;100.00
51099;BME280;37146;48.210;16.234;2023-03-03T04:49:10;98913.47;;;-2.39;100.00
51099;BME280;37146;48.210;16.234;2023-03-03T04:51:35;98905.63;;;-2.48;100.00
51099;BME280;37146;48.210;16.234;2023-03-03T04:54:00;98910.88;;;-2.53;100.00
51099;BME280;37146;48.210;16.234;2023-03-03T04:56:26;98905.63;;;-2.48;100.00
51099;BME280;37146;48.210;16.234;2023-03-03T04:58:52;98904.75;;;-2.31;100.00
51099;BME280;37146;48.210;16.234;2023-03-03T05:01:17;98915.22;;;-2.36;100.00
51099;BME280;37146;48.210;16.234;2023-03-03T05:03:43;98915.22;;;-2.50;100.00
51099;BME280;37146;48.210;16.234;2023-03-03T05:06:09;98911.75;;;-2.61;100.00
51099;BME280;37146;48.210;16.234;2023-03-03T05:08:34;98909.13;;;-2.49;100.00
51099;BME280;37146;48.210;16.234;2023-03-03T05:10:59;98914.34;;;-2.41;100.00
51099;BME280;37146;48.210;16.234;2023-03-03T05:13:25;98915.25;;;-2.47;100.00
51099;BME280;37146;48.210;16.234;2023-03-03T05:15:54;98920.47;;;-2.44;100.00
51099;BME280;37146;48.210;16.234;2023-03-03T05:18:20;98921.34;;;-2.46;100.00
51099;BME280;37146;48.210;16.234;2023-03-03T05:20:46;98920.47;;;-2.41;100.00
51099;BME280;37146;48.210;16.234;2023-03-03T05:23:11;98925.69;;;-2.38;100.00
51099;BME280;37146;48.210;16.234;2023-03-03T05:25:36;98919.56;;;-2.35;100.00
51099;BME280;37146;48.210;16.234;2023-03-03T05:28:03;98917.84;;;-2.35;100.00
51099;BME280;37146;48.210;16.234;2023-03-03T05:30:29;98927.44;;;-2.30;100.00
51099;BME280;37146;48.210;16.234;2023-03-03T05:32:54;98928.31;;;-2.42;100.00
51099;BME280;37146;48.210;16.234;2023-03-03T05:35:19;98931.75;;;-2.08;100.00
51099;BME280;37146;48.210;16.234;2023-03-03T05:37:44;98938.78;;;-2.10;100.00
51099;BME280;37146;48.210;16.234;2023-03-03T05:40:12;98944.88;;;-2.12;100.00
51099;BME280;37146;48.210;16.234;2023-03-03T05:42:37;98944.88;;;-2.09;100.00
51099;BME280;37146;48.210;16.234;2023-03-03T05:45:03;98955.38;;;-2.20;100.00
51099;BME280;37146;48.210;16.234;2023-03-03T05:47:28;98950.13;;;-2.05;100.00
51099;BME280;37146;48.210;16.234;2023-03-03T05:49:53;98958.84;;;-1.95;100.00
51099;BME280;37146;48.210;16.234;2023-03-03T05:52:18;98960.56;;;-1.77;100.00
51099;BME280;37146;48.210;16.234;2023-03-03T05:54:44;98955.31;;;-1.80;100.00
51099;BME280;37146;48.210;16.234;2023-03-03T05:57:09;98970.16;;;-1.82;100.00
51099;BME280;37146;48.210;16.234;2023-03-03T05:59:34;98965.78;;;-1.77;100.00
51099;BME280;37146;48.210;16.234;2023-03-03T06:01:59;98971.00;;;-1.71;100.00
51099;BME280;37146;48.210;16.234;2023-03-03T06:04:25;98977.03;;;-1.42;100.00
51099;BME280;37146;48.210;16.234;2023-03-03T06:06:50;98979.63;;;-1.34;100.00
51099;BME280;37146;48.210;16.234;2023-03-03T06:09:15;98982.31;;;-1.44;100.00
51099;BME280;37146;48.210;16.234;2023-03-03T06:11:43;98970.00;;;-1.34;100.00
51099;BME280;37146;48.210;16.234;2023-03-03T06:14:08;98975.19;;;-1.17;100.00
51099;BME280;37146;48.210;16.234;2023-03-03T06:16:33;98977.75;;;-1.04;100.00
51099;BME280;37146;48.210;16.234;2023-03-03T06:18:58;98982.91;;;-0.89;100.00
51099;BME280;37146;48.210;16.234;2023-03-03T06:21:25;98977.63;;;-0.80;99.90
51099;BME280;37146;48.210;16.234;2023-03-03T06:23:50;98981.97;;;-0.77;98.90
51099;BME280;37146;48.210;16.234;2023-03-03T06:26:15;98989.84;;;-0.74;97.61
51099;BME280;37146;48.210;16.234;2023-03-03T06:28:40;98991.50;;;-0.65;97.41
51099;BME280;37146;48.210;16.234;2023-03-03T06:31:06;98988.78;;;-0.53;97.09
51099;BME280;37146;48.210;16.234;2023-03-03T06:33:31;98985.19;;;-0.38;95.93
51099;BME280;37146;48.210;16.234;2023-03-03T06:35:56;98989.47;;;-0.26;95.78
51099;BME280;37146;48.210;16.234;2023-03-03T06:38:22;98992.81;;;-0.08;95.70
51099;BME280;37146;48.210;16.234;2023-03-03T06:40:47;98992.75;;;-0.01;95.21
51099;BME280;37146;48.210;16.234;2023-03-03T06:43:13;98995.25;;;0.15;94.05
51099;BME280;37146;48.210;16.234;2023-03-03T06:45:38;98992.59;;;0.20;93.01
51099;BME280;37146;48.210;16.234;2023-03-03T06:48:03;98997.72;;;0.30;93.63
51099;BME280;37146;48.210;16.234;2023-03-03T06:50:29;98999.47;;;0.33;93.02
51099;BME280;37146;48.210;16.234;2023-03-03T06:53:09;99003.88;;;0.31;92.81
51099;BME280;37146;48.210;16.234;2023-03-03T06:55:35;99003.84;;;0.33;93.39
51099;BME280;37146;48.210;16.234;2023-03-03T06:58:01;99003.88;;;0.31;92.34
51099;BME280;37146;48.210;16.234;2023-03-03T07:00:27;98999.28;;;0.49;92.24
51099;BME280;37146;48.210;16.234;2023-03-03T07:03:06;98996.34;;;0.76;90.28
51099;BME280;37146;48.210;16.234;2023-03-03T07:05:31;98992.50;;;1.04;89.92
51099;BME280;37146;48.210;16.234;2023-03-03T07:07:58;98995.16;;;1.63;86.17
51099;BME280;37146;48.210;16.234;2023-03-03T07:10:25;98990.31;;;1.90;85.57
51099;BME280;37146;48.210;16.234;2023-03-03T07:12:50;99003.44;;;1.93;84.48
51099;BME280;37146;48.210;16.234;2023-03-03T07:15:20;98994.22;;;2.19;82.89
51099;BME280;37146;48.210;16.234;2023-03-03T07:17:50;99000.00;;;2.38;81.77
51099;BME280;37146;48.210;16.234;2023-03-03T07:20:21;98993.31;;;2.67;80.55
51099;BME280;37146;48.210;16.234;2023-03-03T07:22:46;98997.28;;;2.90;78.43
51099;BME280;37146;48.210;16.234;2023-03-03T07:25:20;98998.09;;;3.33;76.29
51099;BME280;37146;48.210;16.234;2023-03-03T07:27:45;99000.94;;;3.25;74.81
51099;BME280;37146;48.210;16.234;2023-03-03T07:32:40;99004.34;;;4.72;69.30
51099;BME280;37146;48.210;16.234;2023-03-03T07:35:51;99016.09;;;4.28;72.11
51099;BME280;37146;48.210;16.234;2023-03-03T07:37:51;99019.91;;;4.51;69.95
51099;BME280;37146;48.210;16.234;2023-03-03T07:42:47;99024.66;;;4.03;71.66
51099;BME280;37146;48.210;16.234;2023-03-03T07:45:21;99024.88;;;4.30;70.52
51099;BME280;37146;48.210;16.234;2023-03-03T07:47:48;99022.72;;;5.39;66.69
51099;BME280;37146;48.210;16.234;2023-03-03T07:50:15;99023.25;;;6.85;60.49
51099;BME280;37146;48.210;16.234;2023-03-03T07:52:43;99022.53;;;7.29;59.17
51099;BME280;37146;48.210;16.234;2023-03-03T07:57:50;99027.41;;;8.08;54.79
51099;BME280;37146;48.210;16.234;2023-03-03T08:07:44;99015.94;;;8.90;53.79
51099;BME280;37146;48.210;16.234;2023-03-03T08:10:26;99017.72;;;9.10;51.78
51099;BME280;37146;48.210;16.234;2023-03-03T08:12:53;99018.97;;;9.02;51.41
51099;BME280;37146;48.210;16.234;2023-03-03T08:17:44;99007.78;;;9.33;49.91
51099;BME280;37146;48.210;16.234;2023-03-03T08:22:54;99004.72;;;10.33;48.76
51099;BME280;37146;48.210;16.234;2023-03-03T08:25:20;99001.88;;;10.89;47.46
51099;BME280;37146;48.210;16.234;2023-03-03T08:27:45;99004.66;;;11.53;45.51
51099;BME280;37146;48.210;16.234;2023-03-03T08:30:10;99001.59;;;10.43;46.97
51099;BME280;37146;48.210;16.234;2023-03-03T08:32:35;98999.69;;;10.62;47.93
51099;BME280;37146;48.210;16.234;2023-03-03T08:35:01;98998.25;;;10.90;46.83
51099;BME280;37146;48.210;16.234;2023-03-03T08:37:26;99015.03;;;10.04;49.40
51099;BME280;37146;48.210;16.234;2023-03-03T08:39:51;99013.16;;;11.12;47.01
51099;BME280;37146;48.210;16.234;2023-03-03T08:42:16;99011.66;;;10.73;47.03
51099;BME280;37146;48.210;16.234;2023-03-03T08:44:42;99009.13;;;10.87;45.95
51099;BME280;37146;48.210;16.234;2023-03-03T08:47:07;99016.16;;;11.55;46.11
51099;BME280;37146;48.210;16.234;2023-03-03T08:49:32;99012.84;;;12.75;43.42
51099;BME280;37146;48.210;16.234;2023-03-03T08:51:58;99017.50;;;12.27;43.00
51099;BME280;37146;48.210;16.234;2023-03-03T08:54:24;99017.38;;;13.18;42.03
51099;BME280;37146;48.210;16.234;2023-03-03T08:56:49;99011.59;;;12.36;42.68
51099;BME280;37146;48.210;16.234;2023-03-03T08:59:15;99012.88;;;11.98;43.23
51099;BME280;37146;48.210;16.234;2023-03-03T09:01:41;99018.09;;;12.32;42.97
51099;BME280;37146;48.210;16.234;2023-03-03T09:04:08;99019.53;;;12.07;42.88
51099;BME280;37146;48.210;16.234;2023-03-03T09:06:34;99018.91;;;12.02;43.71
51099;BME280;37146;48.210;16.234;2023-03-03T09:08:59;99023.06;;;11.91;44.01
51099;BME280;37146;48.210;16.234;2023-03-03T09:11:26;99030.84;;;12.28;43.46
51099;BME280;37146;48.210;16.234;2023-03-03T09:13:53;99037.16;;;12.27;42.94
51099;BME280;37146;48.210;16.234;2023-03-03T09:16:23;99040.56;;;11.99;43.47
51099;BME280;37146;48.210;16.234;2023-03-03T09:18:48;99040.75;;;12.73;42.38
51099;BME280;37146;48.210;16.234;2023-03-03T09:21:15;99040.81;;;12.10;42.24
51099;BME280;37146;48.210;16.234;2023-03-03T09:23:42;99044.91;;;11.02;44.35
51099;BME280;37146;48.210;16.234;2023-03-03T09:28:54;99054.34;;;11.75;43.80
51099;BME280;37146;48.210;16.234;2023-03-03T09:31:44;99057.59;;;11.48;44.41
51099;BME280;37146;48.210;16.234;2023-03-03T09:36:39;99056.44;;;11.20;44.52
51099;BME280;37146;48.210;16.234;2023-03-03T09:39:11;99049.69;;;12.27;42.74
51099;BME280;37146;48.210;16.234;2023-03-03T09:41:45;99042.28;;;12.46;41.79
51099;BME280;37146;48.210;16.234;2023-03-03T09:54:55;99055.22;;;11.91;43.18
51099;BME280;37146;48.210;16.234;2023-03-03T09:57:24;99051.69;;;11.75;42.33
51099;BME280;37146;48.210;16.234;2023-03-03T10:15:29;99031.75;;;14.17;38.32
51099;BME280;37146;48.210;16.234;2023-03-03T10:25:39;99020.25;;;14.28;38.01
51099;BME280;37146;48.210;16.234;2023-03-03T10:31:00;99018.91;;;15.40;37.19
51099;BME280;37146;48.210;16.234;2023-03-03T10:33:48;98998.41;;;15.24;36.64
51099;BME280;37146;48.210;16.234;2023-03-03T10:44:04;98988.19;;;16.52;34.34
51099;BME280;37146;48.210;16.234;2023-03-03T10:46:36;98977.09;;;15.21;36.27
51099;BME280;37146;48.210;16.234;2023-03-03T10:49:09;98980.81;;;15.95;35.77
51099;BME280;37146;48.210;16.234;2023-03-03T10:54:25;98961.53;;;16.59;34.12
51099;BME280;37146;48.210;16.234;2023-03-03T10:59:42;98963.38;;;15.74;35.43
51099;BME280;37146;48.210;16.234;2023-03-03T11:07:19;98980.97;;;16.29;35.16
51099;BME280;37146;48.210;16.234;2023-03-03T11:12:32;98972.59;;;14.70;36.45
51099;BME280;37146;48.210;16.234;2023-03-03T11:17:32;98979.66;;;13.78;38.83
51099;BME280;37146;48.210;16.234;2023-03-03T11:22:56;98984.63;;;13.69;38.74
51099;BME280;37146;48.210;16.234;2023-03-03T11:30:55;98977.94;;;12.61;40.35
51099;BME280;37146;48.210;16.234;2023-03-03T11:43:40;98954.94;;;11.80;42.31
51099;BME280;37146;48.210;16.234;2023-03-03T11:46:14;98953.66;;;11.71;42.63
51099;BME280;37146;48.210;16.234;2023-03-03T11:48:57;98943.13;;;12.45;42.53
51099;BME280;37146;48.210;16.234;2023-03-03T11:56:40;98935.84;;;12.47;41.95
51099;BME280;37146;48.210;16.234;2023-03-03T12:04:18;98944.19;;;11.96;41.81
51099;BME280;37146;48.210;16.234;2023-03-03T12:09:36;98935.38;;;12.40;42.38
51099;BME280;37146;48.210;16.234;2023-03-03T12:12:14;98931.50;;;12.30;42.99
51099;BME280;37146;48.210;16.234;2023-03-03T12:25:16;98924.81;;;10.62;44.92
51099;BME280;37146;48.210;16.234;2023-03-03T12:35:42;98904.00;;;10.51;44.05
51099;BME280;37146;48.210;16.234;2023-03-03T12:40:54;98894.66;;;11.08;42.43
51099;BME280;37146;48.210;16.234;2023-03-03T12:48:44;98893.56;;;11.12;42.49
51099;BME280;37146;48.210;16.234;2023-03-03T12:56:04;98883.78;;;11.27;43.36
51099;BME280;37146;48.210;16.234;2023-03-03T12:59:15;98878.28;;;11.14;45.27
51099;BME280;37146;48.210;16.234;2023-03-03T13:04:28;98880.53;;;11.22;43.88
51099;BME280;37146;48.210;16.234;2023-03-03T13:06:57;98884.22;;;11.04;45.46
51099;BME280;37146;48.210;16.234;2023-03-03T13:09:24;98882.94;;;10.95;45.64
51099;BME280;37146;48.210;16.234;2023-03-03T13:12:08;98877.34;;;11.00;44.80
51099;BME280;37146;48.210;16.234;2023-03-03T13:14:49;98873.22;;;10.76;45.42
51099;BME280;37146;48.210;16.234;2023-03-03T13:20:01;98867.41;;;10.86;44.70
51099;BME280;37146;48.210;16.234;2023-03-03T13:22:36;98867.84;;;10.60;45.66
51099;BME280;37146;48.210;16.234;2023-03-03T13:27:47;98866.00;;;10.94;45.08
51099;BME280;37146;48.210;16.234;2023-03-03T13:32:46;98864.13;;;10.96;46.55
51099;BME280;37146;48.210;16.234;2023-03-03T13:37:45;98857.19;;;10.92;47.36
51099;BME280;37146;48.210;16.234;2023-03-03T13:45:06;98855.94;;;11.00;45.56
51099;BME280;37146;48.210;16.234;2023-03-03T13:52:36;98851.84;;;11.08;46.15
51099;BME280;37146;48.210;16.234;2023-03-03T14:07:51;98839.34;;;11.25;45.38
51099;BME280;37146;48.210;16.234;2023-03-03T14:15:32;98839.59;;;11.20;46.59
51099;BME280;37146;48.210;16.234;2023-03-03T14:22:58;98845.47;;;11.27;46.14
51099;BME280;37146;48.210;16.234;2023-03-03T14:25:25;98839.19;;;11.12;46.72
51099;BME280;37146;48.210;16.234;2023-03-03T14:28:09;98830.88;;;11.33;44.92
51099;BME280;37146;48.210;16.234;2023-03-03T14:30:43;98835.47;;;10.98;46.19
51099;BME280;37146;48.210;16.234;2023-03-03T14:35:35;98835.81;;;11.24;45.28
51099;BME280;37146;48.210;16.234;2023-03-03T14:38:02;98831.72;;;11.17;45.92
51099;BME280;37146;48.210;16.234;2023-03-03T14:40:31;98822.16;;;11.13;45.59
51099;BME280;37146;48.210;16.234;2023-03-03T14:42:58;98833.22;;;11.07;45.50
51099;BME280;37146;48.210;16.234;2023-03-03T14:47:49;98835.88;;;10.91;45.13
51099;BME280;37146;48.210;16.234;2023-03-03T14:50:36;98828.22;;;11.01;45.26
51099;BME280;37146;48.210;16.234;2023-03-03T14:55:41;98833.22;;;11.07;45.45
51099;BME280;37146;48.210;16.234;2023-03-03T14:58:49;98845.28;;;10.98;46.14
51099;BME280;37146;48.210;16.234;2023-03-03T15:01:12;98824.59;;;11.02;45.36
51099;BME280;37146;48.210;16.234;2023-03-03T15:03:43;98838.03;;;11.00;45.38
51099;BME280;37146;48.210;16.234;2023-03-03T15:06:10;98829.69;;;10.90;45.37
51099;BME280;37146;48.210;16.234;2023-03-03T15:08:39;98832.38;;;10.90;45.44
51099;BME280;37146;48.210;16.234;2023-03-03T15:11:37;98829.59;;;10.76;45.96
51099;BME280;37146;48.210;16.234;2023-03-03T15:14:13;98836.28;;;10.51;45.81
51099;BME280;37146;48.210;16.234;2023-03-03T15:16:39;98835.03;;;10.41;46.34
51099;BME280;37146;48.210;16.234;2023-03-03T15:22:06;98828.53;;;10.29;47.91
51099;BME280;37146;48.210;16.234;2023-03-03T15:24:38;98826.75;;;9.94;47.77
51099;BME280;37146;48.210;16.234;2023-03-03T15:27:11;98828.47;;;9.95;48.69
51099;BME280;37146;48.210;16.234;2023-03-03T15:29:40;98825.03;;;9.93;48.75
51099;BME280;37146;48.210;16.234;2023-03-03T15:32:14;98825.25;;;9.88;48.45
51099;BME280;37146;48.210;16.234;2023-03-03T15:34:43;98818.63;;;9.80;48.39
51099;BME280;37146;48.210;16.234;2023-03-03T15:37:17;98827.31;;;9.83;47.84
51099;BME280;37146;48.210;16.234;2023-03-03T15:42:20;98820.25;;;9.65;48.74
51099;BME280;37146;48.210;16.234;2023-03-03T15:49:49;98828.41;;;9.44;47.33
51099;BME280;37146;48.210;16.234;2023-03-03T16:00:25;98828.06;;;8.96;48.30
51099;BME280;37146;48.210;16.234;2023-03-03T16:02:57;98833.00;;;8.86;48.92
51099;BME280;37146;48.210;16.234;2023-03-03T16:05:34;98833.50;;;8.75;49.45
51099;BME280;37146;48.210;16.234;2023-03-03T16:08:10;98832.84;;;8.70;49.18
51099;BME280;37146;48.210;16.234;2023-03-03T16:20:58;98839.97;;;8.30;48.69
51099;BME280;37146;48.210;16.234;2023-03-03T16:23:46;98852.19;;;8.15;49.68
51099;BME280;37146;48.210;16.234;2023-03-03T16:26:34;98849.41;;;8.18;48.16
51099;BME280;37146;48.210;16.234;2023-03-03T16:31:42;98856.06;;;7.87;48.21
51099;BME280;37146;48.210;16.234;2023-03-03T16:36:57;98865.22;;;7.59;50.52
51099;BME280;37146;48.210;16.234;2023-03-03T16:42:26;98881.44;;;7.31;50.79
51099;BME280;37146;48.210;16.234;2023-03-03T16:50:26;98882.94;;;6.93;51.80
51099;BME280;37146;48.210;16.234;2023-03-03T16:53:09;98881.56;;;6.83;53.66
51099;BME280;37146;48.210;16.234;2023-03-03T16:58:07;98885.13;;;6.58;53.73
51099;BME280;37146;48.210;16.234;2023-03-03T17:01:24;98890.19;;;6.41;53.81
51099;BME280;37146;48.210;16.234;2023-03-03T17:08:39;98900.31;;;6.06;55.27
51099;BME280;37146;48.210;16.234;2023-03-03T17:18:43;98915.22;;;5.83;57.62
51099;BME280;37146;48.210;16.234;2023-03-03T17:21:17;98924.69;;;5.63;57.29
51099;BME280;37146;48.210;16.234;2023-03-03T17:24:18;98924.50;;;5.69;57.34
51099;BME280;37146;48.210;16.234;2023-03-03T17:26:44;98918.78;;;5.55;56.96
51099;BME280;37146;48.210;16.234;2023-03-03T17:29:24;98931.47;;;5.45;56.94
51099;BME280;37146;48.210;16.234;2023-03-03T17:31:59;98935.19;;;5.39;58.15